createdAt,value
2023-01-19T00:00:59.456Z,13.85
2023-01-19T00:03:28.123Z,9.30
2023-01-19T00:05:56.575Z,10.73
2023-01-19T00:08:24.933Z,8.98
2023-01-19T00:10:53.363Z,7.53
2023-01-19T00:13:21.767Z,7.75
2023-01-19T00:15:51.510Z,9.05
2023-01-19T00:18:20.018Z,7.80
2023-01-19T00:20:49.313Z,9.95
2023-01-19T00:23:17.784Z,7.63
2023-01-19T00:25:47.833Z,8.75
2023-01-19T00:28:17.807Z,11.80
2023-01-19T00:30:46.818Z,8.75
2023-01-19T00:33:16.523Z,12.13
2023-01-19T00:35:45.399Z,10.07
2023-01-19T00:38:13.779Z,8.82
2023-01-19T00:40:42.106Z,10.40
2023-01-19T00:43:10.480Z,7.55
2023-01-19T00:45:38.888Z,9.95
2023-01-19T00:48:07.602Z,7.40
2023-01-19T00:50:37.331Z,9.38
2023-01-19T00:53:05.703Z,10.63
2023-01-19T00:55:34.280Z,8.07
2023-01-19T00:58:03.534Z,8.93
2023-01-19T01:00:36.851Z,9.50
2023-01-19T01:03:05.618Z,8.77
2023-01-19T01:05:33.975Z,6.50
2023-01-19T01:08:03.695Z,8.98
2023-01-19T01:10:32.081Z,13.40
2023-01-19T01:13:19.893Z,9.07
2023-01-19T01:15:51.064Z,9.05
2023-01-19T01:18:19.582Z,6.95
2023-01-19T01:20:48.085Z,9.02
2023-01-19T01:23:23.200Z,10.80
2023-01-19T01:25:51.706Z,7.63
2023-01-19T01:28:20.145Z,8.98
2023-01-19T01:30:48.638Z,11.65
2023-01-19T01:33:39.780Z,9.93
2023-01-19T01:36:06.095Z,11.70
2023-01-19T01:38:35.804Z,8.48
2023-01-19T01:41:04.407Z,10.70
2023-01-19T01:43:45.324Z,8.98
2023-01-19T01:46:16.116Z,11.18
2023-01-19T01:48:50.760Z,12.80
2023-01-19T01:51:25.432Z,9.07
2023-01-19T01:54:06.943Z,10.18
2023-01-19T01:56:38.568Z,11.50
2023-01-19T01:59:10.376Z,9.27
2023-01-19T02:01:56.449Z,11.27
2023-01-19T02:04:25.350Z,8.07
2023-01-19T02:07:11.540Z,10.77
2023-01-19T02:15:22.408Z,7.55
2023-01-19T02:17:51.028Z,9.25
2023-01-19T02:20:21.679Z,9.00
2023-01-19T02:22:52.194Z,8.93
2023-01-19T02:25:22.060Z,9.63
2023-01-19T02:27:51.514Z,9.57
2023-01-19T02:30:20.301Z,9.90
2023-01-19T02:32:48.646Z,12.20
2023-01-19T02:35:18.704Z,10.45
2023-01-19T02:37:47.924Z,9.68
2023-01-19T02:40:20.713Z,12.65
2023-01-19T02:42:53.034Z,11.50
2023-01-19T02:45:23.576Z,11.20
2023-01-19T02:47:53.314Z,10.50
2023-01-19T02:50:38.123Z,9.45
2023-01-19T02:53:26.096Z,9.65
2023-01-19T02:55:59.495Z,13.65
2023-01-19T02:58:35.746Z,10.30
2023-01-19T03:01:14.043Z,8.48
2023-01-19T03:03:55.621Z,11.95
2023-01-19T03:06:38.851Z,9.57
2023-01-19T03:09:15.403Z,10.25
2023-01-19T03:11:51.168Z,12.07
2023-01-19T03:14:24.200Z,11.02
2023-01-19T03:16:56.951Z,6.53
2023-01-19T03:19:29.313Z,12.65
2023-01-19T03:22:00.096Z,8.88
2023-01-19T03:24:32.261Z,9.20
2023-01-19T03:27:04.713Z,8.77
2023-01-19T03:29:36.105Z,9.80
2023-01-19T03:32:10.421Z,10.77
2023-01-19T03:34:41.056Z,7.32
2023-01-19T03:37:12.300Z,10.00
2023-01-19T03:39:41.160Z,13.15
2023-01-19T03:42:13.513Z,12.32
2023-01-19T03:44:45.158Z,11.48
2023-01-19T03:47:15.660Z,9.35
2023-01-19T03:49:46.763Z,10.85
2023-01-19T03:52:15.165Z,10.15
2023-01-19T03:54:43.910Z,9.52
2023-01-19T03:57:12.811Z,8.85
2023-01-19T03:59:42.737Z,10.63
2023-01-19T04:02:11.225Z,11.60
2023-01-19T04:04:40.061Z,9.45
2023-01-19T04:07:10.703Z,7.75
2023-01-19T04:09:39.058Z,9.60
2023-01-19T04:12:07.772Z,10.93
2023-01-19T04:14:36.114Z,11.15
2023-01-19T04:17:05.839Z,7.78
2023-01-19T04:19:34.146Z,11.25
2023-01-19T04:22:02.626Z,11.75
2023-01-19T04:24:31.027Z,12.57
2023-01-19T04:26:59.444Z,8.65
2023-01-19T04:29:27.774Z,10.52
2023-01-19T04:31:56.085Z,14.35
2023-01-19T04:34:25.905Z,9.20
2023-01-19T04:36:55.884Z,6.82
2023-01-19T04:39:24.239Z,10.00
2023-01-19T04:41:52.809Z,10.50
2023-01-19T04:44:21.182Z,8.85
2023-01-19T04:46:49.657Z,12.55
2023-01-19T04:49:18.284Z,12.35
2023-01-19T04:51:48.470Z,12.30
2023-01-19T04:54:16.983Z,10.85
2023-01-19T04:56:45.325Z,14.55
2023-01-19T04:59:14.335Z,10.05
2023-01-19T05:01:42.786Z,11.32
2023-01-19T05:04:11.127Z,10.75
2023-01-19T05:06:39.589Z,10.23
2023-01-19T05:09:11.643Z,14.80
2023-01-19T05:11:40.191Z,11.95
2023-01-19T05:14:08.530Z,12.80
2023-01-19T05:16:36.873Z,11.40
2023-01-19T05:19:05.246Z,14.48
2023-01-19T05:21:33.600Z,9.57
2023-01-19T05:24:01.916Z,13.75
2023-01-19T05:26:31.592Z,13.40
2023-01-19T05:28:59.962Z,12.80
2023-01-19T05:31:28.512Z,10.80
2023-01-19T05:33:56.919Z,13.57
2023-01-19T05:36:25.234Z,13.45
2023-01-19T05:38:53.786Z,12.60
2023-01-19T05:41:22.166Z,10.98
2023-01-19T05:43:51.889Z,12.35
2023-01-19T05:46:20.335Z,9.55
2023-01-19T05:48:48.798Z,12.45
2023-01-19T05:51:18.164Z,13.02
2023-01-19T05:53:46.821Z,17.20
2023-01-19T05:56:15.146Z,14.13
2023-01-19T05:58:43.503Z,14.00
2023-01-19T06:01:13.664Z,14.88
2023-01-19T06:03:42.420Z,12.52
2023-01-19T06:06:11.519Z,12.52
2023-01-19T06:08:40.411Z,16.20
2023-01-19T06:11:09.052Z,15.82
2023-01-19T06:13:41.269Z,13.07
2023-01-19T06:16:11.570Z,14.52
2023-01-19T06:18:41.940Z,13.45
2023-01-19T06:21:13.552Z,17.30
2023-01-19T06:23:42.258Z,20.08
2023-01-19T06:26:10.783Z,17.00
2023-01-19T06:28:39.168Z,18.92
2023-01-19T06:31:07.542Z,17.27
2023-01-19T06:33:35.941Z,13.93
2023-01-19T06:36:06.526Z,15.85
2023-01-19T06:38:35.119Z,15.45
2023-01-19T06:41:03.555Z,18.25
2023-01-19T06:43:32.459Z,16.52
2023-01-19T06:46:01.687Z,14.52
2023-01-19T06:48:30.214Z,16.58
2023-01-19T06:50:59.797Z,20.10
2023-01-19T06:53:30.145Z,19.38
2023-01-19T06:56:03.388Z,14.18
2023-01-19T06:58:34.739Z,17.52
2023-01-19T07:01:03.718Z,15.75
2023-01-19T07:03:32.834Z,24.25
2023-01-19T07:06:02.688Z,21.48
2023-01-19T07:08:32.576Z,19.25
2023-01-19T07:11:24.755Z,20.10
2023-01-19T07:13:51.563Z,20.13
2023-01-19T07:16:20.007Z,16.60
2023-01-19T07:18:49.210Z,16.55
2023-01-19T07:21:17.779Z,22.65
2023-01-19T07:23:49.243Z,20.67
2023-01-19T07:26:19.777Z,18.50
2023-01-19T07:28:48.807Z,22.80
2023-01-19T07:31:18.223Z,20.83
2023-01-19T07:33:46.993Z,23.83
2023-01-19T07:36:16.027Z,20.67
2023-01-19T07:38:44.581Z,19.40
2023-01-19T07:41:14.367Z,21.20
2023-01-19T07:43:42.816Z,22.38
2023-01-19T07:46:11.168Z,17.33
2023-01-19T07:48:39.552Z,19.80
2023-01-19T07:51:13.077Z,22.33
2023-01-19T07:53:42.207Z,20.70
2023-01-19T07:56:11.578Z,16.73
2023-01-19T07:58:41.304Z,22.48
2023-01-19T08:01:11.374Z,19.25
2023-01-19T08:03:40.369Z,21.48
2023-01-19T08:06:08.829Z,23.00
2023-01-19T08:08:37.666Z,22.73
2023-01-19T08:11:06.340Z,21.88
2023-01-19T08:13:34.660Z,21.75
2023-01-19T08:16:04.855Z,17.77
2023-01-19T08:18:33.257Z,14.68
2023-01-19T08:21:01.595Z,19.52
2023-01-19T08:23:30.081Z,24.85
2023-01-19T08:25:58.404Z,21.60
2023-01-19T08:28:26.874Z,19.52
2023-01-19T08:30:55.419Z,22.35
2023-01-19T08:33:25.648Z,19.27
2023-01-19T08:35:54.937Z,23.63
2023-01-19T08:38:24.833Z,23.20
2023-01-19T08:40:53.242Z,22.65
2023-01-19T08:43:21.560Z,19.92
2023-01-19T08:45:52.622Z,18.90
2023-01-19T08:48:25.324Z,26.65
2023-01-19T08:50:53.938Z,22.08
2023-01-19T08:53:24.060Z,25.20
2023-01-19T08:55:57.306Z,23.60
2023-01-19T08:58:25.645Z,22.92
2023-01-19T09:00:54.235Z,21.83
2023-01-19T09:03:23.562Z,19.10
2023-01-19T09:05:53.304Z,21.67
2023-01-19T09:08:21.636Z,21.10
2023-01-19T09:10:52.288Z,26.63
2023-01-19T09:13:21.081Z,18.02
2023-01-19T09:15:49.707Z,19.80
2023-01-19T09:18:20.581Z,20.25
2023-01-19T09:20:50.603Z,24.52
2023-01-19T09:23:22.566Z,23.98
2023-01-19T09:25:57.612Z,19.30
2023-01-19T09:28:26.793Z,21.27
2023-01-19T09:30:55.339Z,26.65
2023-01-19T09:33:24.513Z,21.88
2023-01-19T09:35:53.075Z,21.63
2023-01-19T09:38:23.865Z,21.35
2023-01-19T09:40:54.963Z,17.42
2023-01-19T09:43:34.922Z,23.30
2023-01-19T09:46:06.633Z,21.05
2023-01-19T09:48:45.631Z,16.55
2023-01-19T09:51:17.885Z,16.45
2023-01-19T09:53:55.385Z,15.75
2023-01-19T09:56:25.062Z,21.10
2023-01-19T09:58:53.960Z,23.23
2023-01-19T10:01:36.093Z,20.17
2023-01-19T10:04:27.690Z,20.20
2023-01-19T10:07:06.411Z,20.98
2023-01-19T10:09:43.603Z,20.40
2023-01-19T10:12:19.908Z,20.67
2023-01-19T10:14:55.059Z,19.50
2023-01-19T10:17:38.099Z,16.90
2023-01-19T10:20:17.849Z,18.38
2023-01-19T10:22:49.795Z,16.45
2023-01-19T10:25:23.648Z,19.58
2023-01-19T10:27:52.510Z,18.38
2023-01-19T10:30:24.349Z,19.88
2023-01-19T10:32:53.492Z,16.27
2023-01-19T10:35:25.002Z,25.90
2023-01-19T10:37:57.116Z,20.05
2023-01-19T10:40:34.603Z,20.85
2023-01-19T10:43:03.761Z,23.23
2023-01-19T10:45:32.684Z,18.90
2023-01-19T10:48:07.160Z,17.00
2023-01-19T10:50:39.916Z,21.83
2023-01-19T10:53:21.723Z,24.27
2023-01-19T10:56:18.693Z,22.83
2023-01-19T10:58:47.389Z,19.23
2023-01-19T11:01:18.574Z,17.98
2023-01-19T11:03:47.201Z,18.75
2023-01-19T11:06:27.973Z,22.92
2023-01-19T11:09:12.592Z,19.45
2023-01-19T11:11:55.587Z,22.88
2023-01-19T11:14:30.673Z,20.20
2023-01-19T11:16:59.883Z,26.13
2023-01-19T11:19:31.061Z,19.45
2023-01-19T11:22:21.541Z,20.85
2023-01-19T11:24:50.683Z,18.25
2023-01-19T11:27:21.768Z,26.00
2023-01-19T11:29:59.014Z,18.65
2023-01-19T11:32:29.016Z,19.48
2023-01-19T11:34:57.823Z,19.05
2023-01-19T11:37:34.346Z,16.60
2023-01-19T11:40:16.032Z,14.82
2023-01-19T11:42:46.545Z,17.00
2023-01-19T11:45:18.669Z,20.23
2023-01-19T11:47:49.576Z,14.48
2023-01-19T11:50:27.655Z,15.35
2023-01-19T11:53:00.695Z,17.42
2023-01-19T11:55:37.743Z,15.40
2023-01-19T11:58:18.330Z,13.15
2023-01-19T12:00:51.282Z,15.48
2023-01-19T12:03:25.491Z,15.35
2023-01-19T12:06:08.452Z,16.23
2023-01-19T12:08:41.175Z,15.98
2023-01-19T12:11:15.803Z,13.65
2023-01-19T12:13:48.511Z,15.77
2023-01-19T12:16:22.821Z,14.18
2023-01-19T12:18:55.721Z,14.98
2023-01-19T12:21:24.089Z,15.07
2023-01-19T12:24:13.048Z,11.35
2023-01-19T12:26:49.477Z,13.85
2023-01-19T12:29:22.632Z,13.25
2023-01-19T12:32:18.709Z,13.85
2023-01-19T12:34:48.209Z,12.80
2023-01-19T12:37:45.325Z,12.85
2023-01-19T12:40:30.151Z,11.77
2023-01-19T12:43:01.850Z,13.25
2023-01-19T12:45:35.689Z,12.65
2023-01-19T12:48:05.286Z,15.52
2023-01-19T12:50:38.290Z,14.13
2023-01-19T12:53:20.663Z,11.90
2023-01-19T12:56:00.129Z,12.68
2023-01-19T12:58:28.797Z,14.15
2023-01-19T13:01:15.323Z,9.93
2023-01-19T13:04:03.725Z,14.98
2023-01-19T13:07:10.404Z,12.50
2023-01-19T13:09:39.963Z,13.73
2023-01-19T13:12:20.126Z,10.90
2023-01-19T13:14:52.589Z,12.25
2023-01-19T13:17:33.471Z,10.85
2023-01-19T13:20:35.711Z,10.65
2023-01-19T13:23:19.018Z,7.13
2023-01-19T13:25:58.598Z,14.35
2023-01-19T13:28:33.617Z,10.70
2023-01-19T13:31:03.797Z,10.40
2023-01-19T13:33:41.307Z,17.17
2023-01-19T13:36:21.397Z,9.55
2023-01-19T13:38:52.134Z,9.52
2023-01-19T13:41:25.151Z,11.98
2023-01-19T13:44:02.707Z,9.60
2023-01-19T13:46:38.466Z,10.07
2023-01-19T13:49:19.110Z,7.95
2023-01-19T13:51:53.121Z,9.52
2023-01-19T13:54:25.922Z,14.40
2023-01-19T13:56:55.031Z,9.57
2023-01-19T13:59:23.548Z,10.52
2023-01-19T14:01:54.143Z,9.38
2023-01-19T14:04:29.601Z,13.45
2023-01-19T14:07:01.830Z,10.50
2023-01-19T14:09:30.317Z,11.55
2023-01-19T14:12:25.687Z,12.88
2023-01-19T14:14:54.183Z,9.15
2023-01-19T14:17:27.846Z,8.98
2023-01-19T14:20:05.622Z,8.43
2023-01-19T14:22:39.869Z,10.80
2023-01-19T14:25:31.148Z,11.82
2023-01-19T14:28:28.385Z,13.27
2023-01-19T14:31:00.812Z,13.02
2023-01-19T14:33:46.969Z,9.93
2023-01-19T14:36:41.930Z,8.40
2023-01-19T14:39:24.436Z,11.00
2023-01-19T14:41:54.414Z,7.97
2023-01-19T14:44:29.733Z,11.60
2023-01-19T14:47:03.093Z,9.77
2023-01-19T14:49:36.804Z,9.55
2023-01-19T14:52:17.891Z,10.93
2023-01-19T14:54:47.499Z,8.73
2023-01-19T14:57:16.361Z,8.98
2023-01-19T14:59:49.504Z,6.85
2023-01-19T15:02:19.415Z,11.18
2023-01-19T15:04:48.816Z,8.55
2023-01-19T15:07:26.366Z,6.20
2023-01-19T15:10:00.192Z,7.97
2023-01-19T15:12:29.908Z,5.65
2023-01-19T15:14:58.329Z,6.25
2023-01-19T15:17:30.429Z,6.35
2023-01-19T15:19:58.781Z,6.45
2023-01-19T15:22:29.870Z,8.18
2023-01-19T15:24:59.952Z,7.70
2023-01-19T15:27:28.596Z,7.93
2023-01-19T15:30:01.987Z,6.50
2023-01-19T15:32:30.626Z,6.32
2023-01-19T15:34:59.079Z,7.50
2023-01-19T15:37:28.748Z,7.72
2023-01-19T15:40:01.372Z,8.15
2023-01-19T15:42:29.838Z,8.55
2023-01-19T15:44:58.205Z,7.85
2023-01-19T15:47:26.601Z,7.88
2023-01-19T15:49:55.015Z,7.53
2023-01-19T15:52:26.207Z,9.27
2023-01-19T15:54:55.899Z,8.77
2023-01-19T15:57:24.355Z,7.28
2023-01-19T15:59:53.278Z,7.55
2023-01-19T16:02:21.905Z,7.60
2023-01-19T16:04:50.591Z,6.43
2023-01-19T16:07:19.363Z,10.07
2023-01-19T16:09:48.081Z,6.45
2023-01-19T16:12:17.820Z,9.10
2023-01-19T16:14:46.259Z,6.90
2023-01-19T16:17:14.644Z,8.77
2023-01-19T16:19:43.172Z,6.50
2023-01-19T16:22:12.148Z,5.47
2023-01-19T16:24:40.699Z,6.22
2023-01-19T16:27:09.345Z,5.97
2023-01-19T16:29:39.060Z,6.18
2023-01-19T16:32:07.730Z,8.00
2023-01-19T16:34:36.889Z,5.72
2023-01-19T16:37:06.252Z,7.55
2023-01-19T16:39:34.976Z,4.78
2023-01-19T16:42:06.077Z,7.60
2023-01-19T16:44:36.083Z,6.00
2023-01-19T16:47:05.891Z,5.13
2023-01-19T16:49:34.293Z,5.78
2023-01-19T16:52:03.790Z,4.88
2023-01-19T16:54:32.823Z,6.05
2023-01-19T16:57:01.773Z,9.30
2023-01-19T16:59:30.177Z,8.52
2023-01-19T17:01:58.746Z,7.28
2023-01-19T17:04:29.435Z,5.35
2023-01-19T17:06:57.991Z,7.68
2023-01-19T17:09:26.380Z,6.00
2023-01-19T17:11:54.711Z,8.05
2023-01-19T17:14:23.171Z,5.40
2023-01-19T17:16:51.581Z,5.97
2023-01-19T17:19:22.075Z,5.50
2023-01-19T17:21:54.937Z,5.80
2023-01-19T17:24:23.688Z,8.43
2023-01-19T17:26:52.137Z,5.97
2023-01-19T17:29:20.455Z,6.32
2023-01-19T17:31:51.195Z,7.45
2023-01-19T17:34:19.592Z,6.30
2023-01-19T17:36:47.996Z,5.80
2023-01-19T17:39:18.421Z,4.78
2023-01-19T17:41:48.303Z,6.30
2023-01-19T17:44:18.533Z,6.90
2023-01-19T17:46:50.987Z,4.88
2023-01-19T17:49:19.621Z,6.18
2023-01-19T17:51:51.744Z,6.00
2023-01-19T17:54:21.557Z,5.10
2023-01-19T17:56:50.867Z,7.68
2023-01-19T17:59:19.272Z,7.45
2023-01-19T18:01:47.744Z,9.52
2023-01-19T18:04:16.164Z,7.43
2023-01-19T18:06:46.995Z,6.57
2023-01-19T18:09:15.343Z,5.43
2023-01-19T18:11:45.255Z,7.43
2023-01-19T18:14:13.601Z,8.18
2023-01-19T18:16:42.096Z,7.00
2023-01-19T18:19:10.655Z,7.95
2023-01-19T18:21:39.101Z,8.98
2023-01-19T18:24:07.996Z,10.20
2023-01-19T18:26:37.529Z,11.00
2023-01-19T18:29:07.340Z,10.30
2023-01-19T18:31:35.863Z,7.80
2023-01-19T18:34:04.572Z,9.27
2023-01-19T18:36:34.121Z,6.72
2023-01-19T18:39:02.578Z,7.57
2023-01-19T18:41:31.519Z,6.25
2023-01-19T18:44:00.317Z,8.25
2023-01-19T18:46:30.120Z,6.50
2023-01-19T18:48:58.623Z,9.98
2023-01-19T18:51:27.053Z,7.85
2023-01-19T18:53:55.687Z,7.82
2023-01-19T18:56:24.403Z,8.10
2023-01-19T18:58:53.208Z,11.30
2023-01-19T19:01:24.648Z,11.32
2023-01-19T19:03:55.690Z,8.88
2023-01-19T19:06:26.920Z,8.82
2023-01-19T19:08:56.887Z,9.85
2023-01-19T19:11:26.370Z,8.20
2023-01-19T19:13:55.425Z,9.95
2023-01-19T19:16:23.970Z,9.27
2023-01-19T19:18:53.879Z,15.38
2023-01-19T19:21:25.083Z,11.50
2023-01-19T19:23:54.445Z,10.05
2023-01-19T19:26:23.709Z,7.15
2023-01-19T19:28:52.177Z,11.10
2023-01-19T19:31:22.768Z,8.60
2023-01-19T19:33:51.819Z,9.88
2023-01-19T19:36:22.134Z,7.75
2023-01-19T19:38:51.340Z,11.93
2023-01-19T19:41:21.847Z,12.90
2023-01-19T19:43:50.714Z,9.85
2023-01-19T19:46:20.828Z,8.45
2023-01-19T19:48:52.228Z,9.63
2023-01-19T19:51:25.263Z,8.30
2023-01-19T19:53:54.564Z,8.38
2023-01-19T19:56:24.627Z,10.20
2023-01-19T19:58:55.858Z,8.82
2023-01-19T20:01:28.559Z,9.27
2023-01-19T20:03:59.849Z,9.77
2023-01-19T20:06:29.889Z,9.57
2023-01-19T20:08:58.263Z,12.57
2023-01-19T20:11:30.882Z,10.82
2023-01-19T20:13:59.514Z,11.68
2023-01-19T20:16:28.285Z,11.07
2023-01-19T20:18:56.764Z,9.45
2023-01-19T20:21:27.086Z,12.32
2023-01-19T20:24:00.188Z,12.30
2023-01-19T20:26:31.873Z,9.23
2023-01-19T20:29:05.783Z,13.20
2023-01-19T20:31:36.535Z,11.95
2023-01-19T20:34:07.626Z,10.88
2023-01-19T20:36:37.523Z,12.57
2023-01-19T20:39:10.964Z,8.60
2023-01-19T20:41:44.996Z,14.30
2023-01-19T20:44:14.628Z,11.85
2023-01-19T20:46:43.473Z,13.23
2023-01-19T20:49:11.940Z,9.73
2023-01-19T20:51:43.228Z,10.40
2023-01-19T20:54:14.903Z,11.13
2023-01-19T20:56:44.197Z,13.35
2023-01-19T20:59:13.559Z,8.80
2023-01-19T21:01:42.905Z,10.77
2023-01-19T21:04:12.131Z,10.82
2023-01-19T21:06:41.217Z,11.85
2023-01-19T21:09:11.132Z,12.57
2023-01-19T21:11:41.087Z,11.85
2023-01-19T21:14:09.417Z,12.75
2023-01-19T21:16:38.920Z,11.45
2023-01-19T21:19:07.795Z,12.57
2023-01-19T21:21:36.214Z,12.30
2023-01-19T21:24:05.227Z,10.38
2023-01-19T21:26:34.245Z,13.82
2023-01-19T21:29:04.724Z,14.82
2023-01-19T21:31:33.140Z,11.80
2023-01-19T21:34:01.635Z,12.27
2023-01-19T21:36:29.981Z,15.00
2023-01-19T21:39:00.596Z,11.40
2023-01-19T21:41:30.343Z,14.27
2023-01-19T21:44:00.547Z,14.80
2023-01-19T21:46:32.607Z,13.23
2023-01-19T21:49:02.566Z,13.82
2023-01-19T21:51:33.312Z,17.58
2023-01-19T21:54:02.613Z,14.32
2023-01-19T21:56:34.522Z,13.18
2023-01-19T21:59:03.445Z,19.40
2023-01-19T22:01:34.569Z,11.90
2023-01-19T22:04:03.088Z,13.85
2023-01-19T22:06:31.544Z,13.02
2023-01-19T22:09:00.611Z,13.25
2023-01-19T22:11:29.959Z,17.52
2023-01-19T22:13:59.627Z,14.38
2023-01-19T22:16:29.413Z,14.73
2023-01-19T22:19:01.799Z,13.50
2023-01-19T22:21:31.919Z,19.65
2023-01-19T22:24:01.878Z,17.35
2023-01-19T22:26:31.654Z,17.25
2023-01-19T22:29:01.752Z,13.80
2023-01-19T22:31:31.391Z,16.00
2023-01-19T22:34:01.237Z,15.73
2023-01-19T22:36:31.616Z,16.13
2023-01-19T22:39:01.679Z,22.15
2023-01-19T22:41:31.760Z,17.30
2023-01-19T22:44:02.294Z,15.60
2023-01-19T22:46:32.655Z,19.17
2023-01-19T22:49:03.099Z,18.98
2023-01-19T22:51:33.078Z,17.65
2023-01-19T22:54:02.073Z,19.92
2023-01-19T22:56:32.258Z,18.95
2023-01-19T22:59:01.621Z,15.98
2023-01-19T23:01:33.487Z,15.88
2023-01-19T23:04:05.375Z,21.17
2023-01-19T23:06:36.048Z,16.42
2023-01-19T23:09:06.058Z,17.08
2023-01-19T23:11:36.423Z,15.48
2023-01-19T23:14:06.284Z,18.50
2023-01-19T23:16:35.563Z,18.77
2023-01-19T23:19:05.998Z,14.82
2023-01-19T23:21:35.097Z,16.13
2023-01-19T23:24:05.457Z,16.85
2023-01-19T23:26:38.009Z,14.65
2023-01-19T23:29:08.577Z,18.02
2023-01-19T23:31:38.902Z,19.45
2023-01-19T23:34:10.417Z,17.05
2023-01-19T23:36:40.654Z,16.95
2023-01-19T23:39:14.382Z,14.32
2023-01-19T23:41:42.836Z,15.82
2023-01-19T23:44:11.386Z,18.05
2023-01-19T23:46:43.807Z,15.68
2023-01-19T23:49:13.794Z,19.08
2023-01-19T23:51:42.540Z,16.33
2023-01-19T23:54:12.141Z,17.85
2023-01-19T23:56:42.452Z,18.15
2023-01-19T23:59:12.754Z,15.52
